sensor_id;sensor_type;location;lat;lon;timestamp;P1;durP1;ratioP1;P2;durP2;ratioP2
80421;SDS011;69763;50.182;9.144;2023-10-08T00:01:22;8.93;;;3.92;;
80421;SDS011;69763;50.182;9.144;2023-10-08T00:03:49;7.18;;;3.42;;
80421;SDS011;69763;50.182;9.144;2023-10-08T00:06:14;7.07;;;3.53;;
80421;SDS011;69763;50.182;9.144;2023-10-08T00:08:40;9.80;;;3.45;;
80421;SDS011;69763;50.182;9.144;2023-10-08T00:11:05;9.25;;;3.60;;
80421;SDS011;69763;50.182;9.144;2023-10-08T00:13:31;9.10;;;4.10;;
80421;SDS011;69763;50.182;9.144;2023-10-08T00:15:57;6.50;;;3.60;;
80421;SDS011;69763;50.182;9.144;2023-10-08T00:18:24;7.80;;;3.63;;
80421;SDS011;69763;50.182;9.144;2023-10-08T00:20:50;9.73;;;3.65;;
80421;SDS011;69763;50.182;9.144;2023-10-08T00:23:16;10.07;;;4.53;;
80421;SDS011;69763;50.182;9.144;2023-10-08T00:25:42;8.57;;;3.85;;
80421;SDS011;69763;50.182;9.144;2023-10-08T00:28:07;9.57;;;3.40;;
80421;SDS011;69763;50.182;9.144;2023-10-08T00:30:33;8.85;;;3.55;;
80421;SDS011;69763;50.182;9.144;2023-10-08T00:32:58;7.15;;;3.90;;
80421;SDS011;69763;50.182;9.144;2023-10-08T00:35:24;7.90;;;3.25;;
80421;SDS011;69763;50.182;9.144;2023-10-08T00:37:51;7.75;;;4.03;;
80421;SDS011;69763;50.182;9.144;2023-10-08T00:40:16;9.27;;;3.47;;
80421;SDS011;69763;50.182;9.144;2023-10-08T00:42:42;8.05;;;3.80;;
80421;SDS011;69763;50.182;9.144;2023-10-08T00:45:08;10.65;;;3.80;;
80421;SDS011;69763;50.182;9.144;2023-10-08T00:47:33;11.57;;;4.10;;
80421;SDS011;69763;50.182;9.144;2023-10-08T00:49:59;10.93;;;4.07;;
80421;SDS011;69763;50.182;9.144;2023-10-08T00:52:24;7.28;;;3.20;;
80421;SDS011;69763;50.182;9.144;2023-10-08T00:54:52;7.95;;;3.60;;
80421;SDS011;69763;50.182;9.144;2023-10-08T00:57:18;6.18;;;3.25;;
80421;SDS011;69763;50.182;9.144;2023-10-08T00:59:46;9.40;;;4.03;;
80421;SDS011;69763;50.182;9.144;2023-10-08T01:02:12;9.13;;;3.80;;
80421;SDS011;69763;50.182;9.144;2023-10-08T01:04:38;6.97;;;3.60;;
80421;SDS011;69763;50.182;9.144;2023-10-08T01:07:04;7.75;;;3.40;;
80421;SDS011;69763;50.182;9.144;2023-10-08T01:09:30;11.27;;;3.63;;
80421;SDS011;69763;50.182;9.144;2023-10-08T01:14:38;8.20;;;3.70;;
80421;SDS011;69763;50.182;9.144;2023-10-08T01:17:03;10.85;;;3.88;;
80421;SDS011;69763;50.182;9.144;2023-10-08T01:19:29;9.32;;;3.55;;
80421;SDS011;69763;50.182;9.144;2023-10-08T01:21:54;7.88;;;3.50;;
80421;SDS011;69763;50.182;9.144;2023-10-08T01:24:21;8.43;;;4.03;;
80421;SDS011;69763;50.182;9.144;2023-10-08T01:26:47;8.38;;;3.33;;
80421;SDS011;69763;50.182;9.144;2023-10-08T01:29:13;8.70;;;3.60;;
80421;SDS011;69763;50.182;9.144;2023-10-08T01:31:38;8.90;;;3.90;;
80421;SDS011;69763;50.182;9.144;2023-10-08T01:34:04;7.53;;;3.33;;
80421;SDS011;69763;50.182;9.144;2023-10-08T01:36:30;8.13;;;4.13;;
80421;SDS011;69763;50.182;9.144;2023-10-08T01:38:55;7.80;;;3.88;;
80421;SDS011;69763;50.182;9.144;2023-10-08T01:41:22;8.70;;;3.63;;
80421;SDS011;69763;50.182;9.144;2023-10-08T01:43:48;8.18;;;3.90;;
80421;SDS011;69763;50.182;9.144;2023-10-08T01:46:13;9.73;;;4.55;;
80421;SDS011;69763;50.182;9.144;2023-10-08T01:48:39;6.30;;;3.65;;
80421;SDS011;69763;50.182;9.144;2023-10-08T01:51:04;6.05;;;3.55;;
80421;SDS011;69763;50.182;9.144;2023-10-08T01:53:30;10.45;;;4.28;;
80421;SDS011;69763;50.182;9.144;2023-10-08T01:55:55;6.90;;;3.45;;
80421;SDS011;69763;50.182;9.144;2023-10-08T01:58:22;10.93;;;4.32;;
80421;SDS011;69763;50.182;9.144;2023-10-08T02:00:48;10.95;;;3.83;;
80421;SDS011;69763;50.182;9.144;2023-10-08T02:03:14;9.23;;;3.55;;
80421;SDS011;69763;50.182;9.144;2023-10-08T02:05:41;10.68;;;4.55;;
80421;SDS011;69763;50.182;9.144;2023-10-08T02:10:33;10.15;;;4.03;;
80421;SDS011;69763;50.182;9.144;2023-10-08T02:12:58;8.30;;;3.55;;
80421;SDS011;69763;50.182;9.144;2023-10-08T02:15:25;9.25;;;3.92;;
80421;SDS011;69763;50.182;9.144;2023-10-08T02:17:50;10.25;;;3.90;;
80421;SDS011;69763;50.182;9.144;2023-10-08T02:20:16;9.38;;;4.00;;
80421;SDS011;69763;50.182;9.144;2023-10-08T02:22:41;9.32;;;4.07;;
80421;SDS011;69763;50.182;9.144;2023-10-08T02:25:07;10.38;;;3.50;;
80421;SDS011;69763;50.182;9.144;2023-10-08T02:27:33;9.98;;;3.90;;
80421;SDS011;69763;50.182;9.144;2023-10-08T02:29:58;12.98;;;3.70;;
80421;SDS011;69763;50.182;9.144;2023-10-08T02:32:25;6.88;;;3.78;;
80421;SDS011;69763;50.182;9.144;2023-10-08T02:34:50;10.25;;;4.18;;
80421;SDS011;69763;50.182;9.144;2023-10-08T02:37:16;10.30;;;4.60;;
80421;SDS011;69763;50.182;9.144;2023-10-08T02:39:41;11.30;;;3.78;;
80421;SDS011;69763;50.182;9.144;2023-10-08T02:42:07;11.77;;;3.95;;
80421;SDS011;69763;50.182;9.144;2023-10-08T02:44:32;8.23;;;4.05;;
80421;SDS011;69763;50.182;9.144;2023-10-08T02:46:58;7.57;;;3.70;;
80421;SDS011;69763;50.182;9.144;2023-10-08T02:49:25;8.90;;;3.95;;
80421;SDS011;69763;50.182;9.144;2023-10-08T02:51:52;6.45;;;3.83;;
80421;SDS011;69763;50.182;9.144;2023-10-08T02:54:18;8.20;;;3.83;;
80421;SDS011;69763;50.182;9.144;2023-10-08T02:56:46;6.03;;;3.38;;
80421;SDS011;69763;50.182;9.144;2023-10-08T02:59:13;11.45;;;3.95;;
80421;SDS011;69763;50.182;9.144;2023-10-08T03:01:39;9.40;;;4.15;;
80421;SDS011;69763;50.182;9.144;2023-10-08T03:04:05;8.00;;;3.47;;
80421;SDS011;69763;50.182;9.144;2023-10-08T03:06:32;8.75;;;4.88;;
80421;SDS011;69763;50.182;9.144;2023-10-08T03:08:58;8.27;;;4.10;;
80421;SDS011;69763;50.182;9.144;2023-10-08T03:11:23;9.75;;;3.95;;
80421;SDS011;69763;50.182;9.144;2023-10-08T03:13:49;8.68;;;3.95;;
80421;SDS011;69763;50.182;9.144;2023-10-08T03:16:14;6.45;;;3.50;;
80421;SDS011;69763;50.182;9.144;2023-10-08T03:18:40;9.05;;;3.75;;
80421;SDS011;69763;50.182;9.144;2023-10-08T03:21:06;7.40;;;3.30;;
80421;SDS011;69763;50.182;9.144;2023-10-08T03:23:33;9.25;;;3.92;;
80421;SDS011;69763;50.182;9.144;2023-10-08T03:25:59;9.93;;;4.10;;
80421;SDS011;69763;50.182;9.144;2023-10-08T03:28:25;9.45;;;4.60;;
80421;SDS011;69763;50.182;9.144;2023-10-08T03:30:51;8.70;;;3.60;;
80421;SDS011;69763;50.182;9.144;2023-10-08T03:33:17;9.63;;;3.85;;
80421;SDS011;69763;50.182;9.144;2023-10-08T03:35:42;9.27;;;3.35;;
80421;SDS011;69763;50.182;9.144;2023-10-08T03:38:08;9.43;;;3.72;;
80421;SDS011;69763;50.182;9.144;2023-10-08T03:40:34;7.75;;;3.65;;
80421;SDS011;69763;50.182;9.144;2023-10-08T03:43:00;7.88;;;3.90;;
80421;SDS011;69763;50.182;9.144;2023-10-08T03:45:25;15.93;;;4.47;;
80421;SDS011;69763;50.182;9.144;2023-10-08T03:47:51;9.55;;;3.67;;
80421;SDS011;69763;50.182;9.144;2023-10-08T03:50:16;13.40;;;3.70;;
80421;SDS011;69763;50.182;9.144;2023-10-08T03:52:41;13.18;;;4.38;;
80421;SDS011;69763;50.182;9.144;2023-10-08T03:55:07;8.85;;;4.43;;
80421;SDS011;69763;50.182;9.144;2023-10-08T03:57:34;9.48;;;4.18;;
80421;SDS011;69763;50.182;9.144;2023-10-08T04:00:00;10.40;;;4.30;;
80421;SDS011;69763;50.182;9.144;2023-10-08T04:02:25;10.30;;;4.30;;
80421;SDS011;69763;50.182;9.144;2023-10-08T04:04:50;9.32;;;3.60;;
80421;SDS011;69763;50.182;9.144;2023-10-08T04:07:16;9.18;;;4.70;;
80421;SDS011;69763;50.182;9.144;2023-10-08T04:09:42;7.18;;;3.78;;
80421;SDS011;69763;50.182;9.144;2023-10-08T04:12:08;6.63;;;3.70;;
80421;SDS011;69763;50.182;9.144;2023-10-08T04:14:35;13.52;;;4.00;;
80421;SDS011;69763;50.182;9.144;2023-10-08T04:17:00;8.45;;;3.80;;
80421;SDS011;69763;50.182;9.144;2023-10-08T04:19:26;7.93;;;4.20;;
80421;SDS011;69763;50.182;9.144;2023-10-08T04:21:52;10.52;;;3.78;;
80421;SDS011;69763;50.182;9.144;2023-10-08T04:24:17;7.50;;;3.70;;
80421;SDS011;69763;50.182;9.144;2023-10-08T04:26:43;8.48;;;3.50;;
80421;SDS011;69763;50.182;9.144;2023-10-08T04:29:08;8.93;;;4.10;;
80421;SDS011;69763;50.182;9.144;2023-10-08T04:31:35;11.13;;;4.03;;
80421;SDS011;69763;50.182;9.144;2023-10-08T04:34:01;9.85;;;4.55;;
80421;SDS011;69763;50.182;9.144;2023-10-08T04:36:27;13.35;;;4.50;;
80421;SDS011;69763;50.182;9.144;2023-10-08T04:38:53;9.85;;;3.92;;
80421;SDS011;69763;50.182;9.144;2023-10-08T04:41:19;5.82;;;3.75;;
80421;SDS011;69763;50.182;9.144;2023-10-08T04:43:44;10.23;;;3.72;;
80421;SDS011;69763;50.182;9.144;2023-10-08T04:46:10;8.82;;;4.68;;
80421;SDS011;69763;50.182;9.144;2023-10-08T04:48:37;7.50;;;3.95;;
80421;SDS011;69763;50.182;9.144;2023-10-08T04:51:03;11.40;;;4.40;;
80421;SDS011;69763;50.182;9.144;2023-10-08T04:53:28;10.23;;;4.35;;
80421;SDS011;69763;50.182;9.144;2023-10-08T04:55:55;7.63;;;4.28;;
80421;SDS011;69763;50.182;9.144;2023-10-08T04:58:20;8.85;;;4.05;;
80421;SDS011;69763;50.182;9.144;2023-10-08T05:00:46;11.40;;;4.30;;
80421;SDS011;69763;50.182;9.144;2023-10-08T05:03:11;11.30;;;4.65;;
80421;SDS011;69763;50.182;9.144;2023-10-08T05:05:38;11.32;;;4.53;;
80421;SDS011;69763;50.182;9.144;2023-10-08T05:08:04;9.15;;;4.07;;
80421;SDS011;69763;50.182;9.144;2023-10-08T05:10:29;8.13;;;4.28;;
80421;SDS011;69763;50.182;9.144;2023-10-08T05:12:55;8.18;;;4.10;;
80421;SDS011;69763;50.182;9.144;2023-10-08T05:15:20;13.55;;;4.25;;
80421;SDS011;69763;50.182;9.144;2023-10-08T05:17:46;10.60;;;4.10;;
80421;SDS011;69763;50.182;9.144;2023-10-08T05:20:12;10.32;;;4.13;;
80421;SDS011;69763;50.182;9.144;2023-10-08T05:22:39;8.05;;;3.70;;
80421;SDS011;69763;50.182;9.144;2023-10-08T05:25:05;7.43;;;3.95;;
80421;SDS011;69763;50.182;9.144;2023-10-08T05:27:31;10.77;;;4.20;;
80421;SDS011;69763;50.182;9.144;2023-10-08T05:29:57;8.13;;;3.35;;
80421;SDS011;69763;50.182;9.144;2023-10-08T05:32:26;9.25;;;4.03;;
80421;SDS011;69763;50.182;9.144;2023-10-08T05:34:51;12.13;;;3.90;;
80421;SDS011;69763;50.182;9.144;2023-10-08T05:37:17;17.30;;;4.57;;
80421;SDS011;69763;50.182;9.144;2023-10-08T05:39:44;9.38;;;4.22;;
80421;SDS011;69763;50.182;9.144;2023-10-08T05:42:09;7.57;;;3.67;;
80421;SDS011;69763;50.182;9.144;2023-10-08T05:44:35;10.30;;;4.57;;
80421;SDS011;69763;50.182;9.144;2023-10-08T05:47:01;7.03;;;3.83;;
80421;SDS011;69763;50.182;9.144;2023-10-08T05:51:52;8.93;;;4.22;;
80421;SDS011;69763;50.182;9.144;2023-10-08T05:54:18;11.55;;;4.90;;
80421;SDS011;69763;50.182;9.144;2023-10-08T05:56:46;7.57;;;3.97;;
80421;SDS011;69763;50.182;9.144;2023-10-08T05:59:11;11.57;;;4.40;;
80421;SDS011;69763;50.182;9.144;2023-10-08T06:01:36;8.98;;;4.18;;
80421;SDS011;69763;50.182;9.144;2023-10-08T06:04:02;10.70;;;4.00;;
80421;SDS011;69763;50.182;9.144;2023-10-08T06:06:27;9.45;;;4.55;;
80421;SDS011;69763;50.182;9.144;2023-10-08T06:08:53;11.77;;;4.03;;
80421;SDS011;69763;50.182;9.144;2023-10-08T06:11:18;10.63;;;4.57;;
80421;SDS011;69763;50.182;9.144;2023-10-08T06:13:45;10.20;;;4.30;;
80421;SDS011;69763;50.182;9.144;2023-10-08T06:16:11;10.60;;;5.57;;
80421;SDS011;69763;50.182;9.144;2023-10-08T06:18:36;9.23;;;5.18;;
80421;SDS011;69763;50.182;9.144;2023-10-08T06:21:02;7.40;;;4.20;;
80421;SDS011;69763;50.182;9.144;2023-10-08T06:23:29;8.52;;;4.40;;
80421;SDS011;69763;50.182;9.144;2023-10-08T06:25:55;16.27;;;5.13;;
80421;SDS011;69763;50.182;9.144;2023-10-08T06:28:21;10.98;;;4.03;;
80421;SDS011;69763;50.182;9.144;2023-10-08T06:30:48;7.68;;;4.13;;
80421;SDS011;69763;50.182;9.144;2023-10-08T06:33:14;8.07;;;4.32;;
80421;SDS011;69763;50.182;9.144;2023-10-08T06:35:40;11.35;;;4.78;;
80421;SDS011;69763;50.182;9.144;2023-10-08T06:38:05;9.38;;;3.75;;
80421;SDS011;69763;50.182;9.144;2023-10-08T06:40:31;10.38;;;4.32;;
80421;SDS011;69763;50.182;9.144;2023-10-08T06:42:56;8.30;;;4.25;;
80421;SDS011;69763;50.182;9.144;2023-10-08T06:45:22;9.95;;;4.35;;
80421;SDS011;69763;50.182;9.144;2023-10-08T06:47:48;7.55;;;3.95;;
80421;SDS011;69763;50.182;9.144;2023-10-08T06:50:15;9.35;;;4.78;;
80421;SDS011;69763;50.182;9.144;2023-10-08T06:52:40;8.15;;;4.72;;
80421;SDS011;69763;50.182;9.144;2023-10-08T06:55:06;10.02;;;4.05;;
80421;SDS011;69763;50.182;9.144;2023-10-08T06:57:32;10.40;;;4.25;;
80421;SDS011;69763;50.182;9.144;2023-10-08T06:59:58;8.20;;;4.53;;
80421;SDS011;69763;50.182;9.144;2023-10-08T07:02:23;9.50;;;3.97;;
80421;SDS011;69763;50.182;9.144;2023-10-08T07:04:50;8.38;;;4.38;;
80421;SDS011;69763;50.182;9.144;2023-10-08T07:07:15;13.55;;;4.78;;
80421;SDS011;69763;50.182;9.144;2023-10-08T07:09:41;6.80;;;3.78;;
80421;SDS011;69763;50.182;9.144;2023-10-08T07:12:06;8.30;;;3.88;;
80421;SDS011;69763;50.182;9.144;2023-10-08T07:14:32;8.82;;;4.20;;
80421;SDS011;69763;50.182;9.144;2023-10-08T07:16:58;11.93;;;4.60;;
80421;SDS011;69763;50.182;9.144;2023-10-08T07:19:24;11.93;;;4.53;;
80421;SDS011;69763;50.182;9.144;2023-10-08T07:21:51;8.77;;;4.20;;
80421;SDS011;69763;50.182;9.144;2023-10-08T07:24:16;8.68;;;4.40;;
80421;SDS011;69763;50.182;9.144;2023-10-08T07:26:42;9.02;;;4.75;;
80421;SDS011;69763;50.182;9.144;2023-10-08T07:29:08;11.00;;;4.97;;
80421;SDS011;69763;50.182;9.144;2023-10-08T07:31:33;10.40;;;4.70;;
80421;SDS011;69763;50.182;9.144;2023-10-08T07:36:25;8.80;;;4.13;;
80421;SDS011;69763;50.182;9.144;2023-10-08T07:38:52;9.90;;;4.13;;
80421;SDS011;69763;50.182;9.144;2023-10-08T07:41:18;8.57;;;4.72;;
80421;SDS011;69763;50.182;9.144;2023-10-08T07:43:44;8.13;;;4.15;;
80421;SDS011;69763;50.182;9.144;2023-10-08T07:46:10;9.88;;;4.05;;
80421;SDS011;69763;50.182;9.144;2023-10-08T07:48:35;7.80;;;4.80;;
80421;SDS011;69763;50.182;9.144;2023-10-08T07:51:01;11.77;;;4.97;;
80421;SDS011;69763;50.182;9.144;2023-10-08T07:53:26;8.52;;;4.28;;
80421;SDS011;69763;50.182;9.144;2023-10-08T07:55:53;8.90;;;4.10;;
80421;SDS011;69763;50.182;9.144;2023-10-08T07:58:18;9.00;;;4.40;;
80421;SDS011;69763;50.182;9.144;2023-10-08T08:00:44;9.55;;;4.05;;
80421;SDS011;69763;50.182;9.144;2023-10-08T08:03:09;8.40;;;4.07;;
80421;SDS011;69763;50.182;9.144;2023-10-08T08:05:35;9.85;;;4.28;;
80421;SDS011;69763;50.182;9.144;2023-10-08T08:08:01;9.52;;;4.00;;
80421;SDS011;69763;50.182;9.144;2023-10-08T08:10:26;6.72;;;3.58;;
80421;SDS011;69763;50.182;9.144;2023-10-08T08:12:53;8.65;;;3.78;;
80421;SDS011;69763;50.182;9.144;2023-10-08T08:15:18;6.45;;;3.45;;
80421;SDS011;69763;50.182;9.144;2023-10-08T08:17:44;7.10;;;3.67;;
80421;SDS011;69763;50.182;9.144;2023-10-08T08:20:09;8.73;;;4.18;;
80421;SDS011;69763;50.182;9.144;2023-10-08T08:22:35;8.85;;;4.13;;
80421;SDS011;69763;50.182;9.144;2023-10-08T08:25:01;7.85;;;3.55;;
80421;SDS011;69763;50.182;9.144;2023-10-08T08:27:26;8.82;;;4.05;;
80421;SDS011;69763;50.182;9.144;2023-10-08T08:29:53;9.23;;;3.75;;
80421;SDS011;69763;50.182;9.144;2023-10-08T08:32:18;8.00;;;4.18;;
80421;SDS011;69763;50.182;9.144;2023-10-08T08:34:44;9.63;;;3.63;;
80421;SDS011;69763;50.182;9.144;2023-10-08T08:37:09;9.23;;;4.43;;
80421;SDS011;69763;50.182;9.144;2023-10-08T08:39:36;10.32;;;3.90;;
80421;SDS011;69763;50.182;9.144;2023-10-08T08:42:02;7.70;;;3.83;;
80421;SDS011;69763;50.182;9.144;2023-10-08T08:44:28;11.27;;;4.50;;
80421;SDS011;69763;50.182;9.144;2023-10-08T08:46:57;9.48;;;3.83;;
80421;SDS011;69763;50.182;9.144;2023-10-08T08:49:23;11.25;;;4.32;;
80421;SDS011;69763;50.182;9.144;2023-10-08T08:51:50;12.35;;;4.70;;
80421;SDS011;69763;50.182;9.144;2023-10-08T08:54:17;8.43;;;3.92;;
80421;SDS011;69763;50.182;9.144;2023-10-08T08:56:43;9.63;;;4.38;;
80421;SDS011;69763;50.182;9.144;2023-10-08T08:59:09;9.13;;;4.03;;
80421;SDS011;69763;50.182;9.144;2023-10-08T09:01:34;8.90;;;3.92;;
80421;SDS011;69763;50.182;9.144;2023-10-08T09:04:01;8.35;;;4.07;;
80421;SDS011;69763;50.182;9.144;2023-10-08T09:06:27;9.00;;;3.78;;
80421;SDS011;69763;50.182;9.144;2023-10-08T09:08:53;10.15;;;4.07;;
80421;SDS011;69763;50.182;9.144;2023-10-08T09:11:19;7.38;;;4.07;;
80421;SDS011;69763;50.182;9.144;2023-10-08T09:13:44;11.30;;;4.30;;
80421;SDS011;69763;50.182;9.144;2023-10-08T09:16:11;9.98;;;4.65;;
80421;SDS011;69763;50.182;9.144;2023-10-08T09:18:38;8.00;;;3.70;;
80421;SDS011;69763;50.182;9.144;2023-10-08T09:21:09;10.15;;;4.53;;
80421;SDS011;69763;50.182;9.144;2023-10-08T09:23:38;6.57;;;3.60;;
80421;SDS011;69763;50.182;9.144;2023-10-08T09:26:04;7.75;;;3.80;;
80421;SDS011;69763;50.182;9.144;2023-10-08T09:28:30;10.43;;;4.03;;
80421;SDS011;69763;50.182;9.144;2023-10-08T09:30:56;8.65;;;4.30;;
80421;SDS011;69763;50.182;9.144;2023-10-08T09:33:21;6.18;;;3.38;;
80421;SDS011;69763;50.182;9.144;2023-10-08T09:35:47;12.15;;;4.55;;
80421;SDS011;69763;50.182;9.144;2023-10-08T09:38:14;6.18;;;3.30;;
80421;SDS011;69763;50.182;9.144;2023-10-08T09:40:40;9.90;;;4.10;;
80421;SDS011;69763;50.182;9.144;2023-10-08T09:43:06;11.77;;;5.05;;
80421;SDS011;69763;50.182;9.144;2023-10-08T09:45:33;8.38;;;4.20;;
80421;SDS011;69763;50.182;9.144;2023-10-08T09:47:59;9.93;;;3.95;;
80421;SDS011;69763;50.182;9.144;2023-10-08T09:50:27;10.82;;;4.53;;
80421;SDS011;69763;50.182;9.144;2023-10-08T09:52:56;10.57;;;4.70;;
80421;SDS011;69763;50.182;9.144;2023-10-08T09:57:53;8.75;;;3.83;;
80421;SDS011;69763;50.182;9.144;2023-10-08T10:00:19;12.23;;;4.50;;
80421;SDS011;69763;50.182;9.144;2023-10-08T10:02:45;11.98;;;4.07;;
80421;SDS011;69763;50.182;9.144;2023-10-08T10:05:11;10.07;;;3.60;;
80421;SDS011;69763;50.182;9.144;2023-10-08T10:07:43;11.93;;;4.38;;
80421;SDS011;69763;50.182;9.144;2023-10-08T10:12:56;12.82;;;3.95;;
80421;SDS011;69763;50.182;9.144;2023-10-08T10:15:22;11.23;;;4.60;;
80421;SDS011;69763;50.182;9.144;2023-10-08T10:17:48;9.18;;;4.07;;
80421;SDS011;69763;50.182;9.144;2023-10-08T10:20:13;11.85;;;3.60;;
80421;SDS011;69763;50.182;9.144;2023-10-08T10:22:39;10.27;;;4.15;;
80421;SDS011;69763;50.182;9.144;2023-10-08T10:25:06;13.10;;;5.07;;
80421;SDS011;69763;50.182;9.144;2023-10-08T10:27:34;10.40;;;4.15;;
80421;SDS011;69763;50.182;9.144;2023-10-08T10:30:01;11.80;;;4.22;;
80421;SDS011;69763;50.182;9.144;2023-10-08T10:32:27;12.48;;;3.75;;
80421;SDS011;69763;50.182;9.144;2023-10-08T10:34:52;10.68;;;4.18;;
80421;SDS011;69763;50.182;9.144;2023-10-08T10:37:18;10.90;;;3.92;;
80421;SDS011;69763;50.182;9.144;2023-10-08T10:39:50;11.23;;;4.00;;
80421;SDS011;69763;50.182;9.144;2023-10-08T10:42:16;11.40;;;4.07;;
80421;SDS011;69763;50.182;9.144;2023-10-08T10:44:42;10.43;;;3.97;;
80421;SDS011;69763;50.182;9.144;2023-10-08T10:47:08;10.23;;;3.65;;
80421;SDS011;69763;50.182;9.144;2023-10-08T10:49:34;7.90;;;4.10;;
80421;SDS011;69763;50.182;9.144;2023-10-08T10:51:59;7.63;;;3.90;;
80421;SDS011;69763;50.182;9.144;2023-10-08T10:54:26;8.98;;;4.43;;
80421;SDS011;69763;50.182;9.144;2023-10-08T10:56:51;10.27;;;4.18;;
80421;SDS011;69763;50.182;9.144;2023-10-08T10:59:17;11.25;;;4.47;;
80421;SDS011;69763;50.182;9.144;2023-10-08T11:01:45;8.57;;;3.53;;
80421;SDS011;69763;50.182;9.144;2023-10-08T11:04:11;10.93;;;4.38;;
80421;SDS011;69763;50.182;9.144;2023-10-08T11:06:37;8.40;;;4.22;;
80421;SDS011;69763;50.182;9.144;2023-10-08T11:09:03;9.32;;;4.43;;
80421;SDS011;69763;50.182;9.144;2023-10-08T11:11:28;9.70;;;3.97;;
80421;SDS011;69763;50.182;9.144;2023-10-08T11:13:55;8.70;;;4.00;;
80421;SDS011;69763;50.182;9.144;2023-10-08T11:16:22;9.90;;;4.57;;
80421;SDS011;69763;50.182;9.144;2023-10-08T11:18:50;10.52;;;4.18;;
80421;SDS011;69763;50.182;9.144;2023-10-08T11:21:15;7.82;;;3.75;;
80421;SDS011;69763;50.182;9.144;2023-10-08T11:23:41;10.48;;;4.38;;
80421;SDS011;69763;50.182;9.144;2023-10-08T11:26:09;11.57;;;4.35;;
80421;SDS011;69763;50.182;9.144;2023-10-08T11:28:35;10.70;;;3.90;;
80421;SDS011;69763;50.182;9.144;2023-10-08T11:31:02;14.13;;;4.97;;
80421;SDS011;69763;50.182;9.144;2023-10-08T11:33:29;9.45;;;4.47;;
80421;SDS011;69763;50.182;9.144;2023-10-08T11:35:56;11.68;;;4.70;;
80421;SDS011;69763;50.182;9.144;2023-10-08T11:38:22;10.68;;;4.57;;
80421;SDS011;69763;50.182;9.144;2023-10-08T11:40:49;8.65;;;4.13;;
80421;SDS011;69763;50.182;9.144;2023-10-08T11:43:14;12.88;;;4.18;;
80421;SDS011;69763;50.182;9.144;2023-10-08T11:45:40;10.98;;;4.55;;
80421;SDS011;69763;50.182;9.144;2023-10-08T11:48:05;9.75;;;4.15;;
80421;SDS011;69763;50.182;9.144;2023-10-08T11:50:31;13.70;;;4.65;;
80421;SDS011;69763;50.182;9.144;2023-10-08T11:52:59;9.00;;;4.15;;
80421;SDS011;69763;50.182;9.144;2023-10-08T11:55:25;10.35;;;4.53;;
80421;SDS011;69763;50.182;9.144;2023-10-08T11:57:50;9.95;;;4.95;;
80421;SDS011;69763;50.182;9.144;2023-10-08T12:00:16;12.35;;;4.88;;
80421;SDS011;69763;50.182;9.144;2023-10-08T12:02:41;13.13;;;4.32;;
80421;SDS011;69763;50.182;9.144;2023-10-08T12:05:07;11.73;;;5.55;;
80421;SDS011;69763;50.182;9.144;2023-10-08T12:07:33;10.55;;;4.32;;
80421;SDS011;69763;50.182;9.144;2023-10-08T12:10:00;16.50;;;5.30;;
80421;SDS011;69763;50.182;9.144;2023-10-08T12:12:25;10.82;;;4.47;;
80421;SDS011;69763;50.182;9.144;2023-10-08T12:14:51;15.13;;;4.50;;
80421;SDS011;69763;50.182;9.144;2023-10-08T12:17:16;9.57;;;4.63;;
80421;SDS011;69763;50.182;9.144;2023-10-08T12:19:42;7.22;;;4.30;;
80421;SDS011;69763;50.182;9.144;2023-10-08T12:22:07;14.73;;;5.05;;
80421;SDS011;69763;50.182;9.144;2023-10-08T12:24:32;16.20;;;4.72;;
80421;SDS011;69763;50.182;9.144;2023-10-08T12:26:59;13.82;;;4.72;;
80421;SDS011;69763;50.182;9.144;2023-10-08T12:29:24;10.65;;;4.45;;
80421;SDS011;69763;50.182;9.144;2023-10-08T12:31:51;10.63;;;4.28;;
80421;SDS011;69763;50.182;9.144;2023-10-08T12:34:16;12.57;;;4.70;;
80421;SDS011;69763;50.182;9.144;2023-10-08T12:36:42;9.35;;;4.00;;
80421;SDS011;69763;50.182;9.144;2023-10-08T12:39:07;15.85;;;5.00;;
80421;SDS011;69763;50.182;9.144;2023-10-08T12:41:33;9.77;;;4.97;;
80421;SDS011;69763;50.182;9.144;2023-10-08T12:43:59;10.18;;;4.57;;
80421;SDS011;69763;50.182;9.144;2023-10-08T12:46:25;9.10;;;4.30;;
80421;SDS011;69763;50.182;9.144;2023-10-08T12:48:51;11.80;;;5.18;;
80421;SDS011;69763;50.182;9.144;2023-10-08T12:51:17;11.15;;;4.55;;
80421;SDS011;69763;50.182;9.144;2023-10-08T12:53:42;11.73;;;4.60;;
80421;SDS011;69763;50.182;9.144;2023-10-08T12:56:09;13.27;;;5.18;;
80421;SDS011;69763;50.182;9.144;2023-10-08T12:58:35;10.45;;;4.45;;
80421;SDS011;69763;50.182;9.144;2023-10-08T13:01:03;15.43;;;4.82;;
80421;SDS011;69763;50.182;9.144;2023-10-08T13:03:28;12.75;;;5.18;;
80421;SDS011;69763;50.182;9.144;2023-10-08T13:05:54;10.93;;;4.50;;
80421;SDS011;69763;50.182;9.144;2023-10-08T13:08:20;8.45;;;4.38;;
80421;SDS011;69763;50.182;9.144;2023-10-08T13:10:46;11.40;;;4.75;;
80421;SDS011;69763;50.182;9.144;2023-10-08T13:13:11;14.45;;;4.30;;
80421;SDS011;69763;50.182;9.144;2023-10-08T13:15:37;11.73;;;4.70;;
80421;SDS011;69763;50.182;9.144;2023-10-08T13:18:05;7.18;;;3.88;;
80421;SDS011;69763;50.182;9.144;2023-10-08T13:20:31;15.95;;;4.00;;
80421;SDS011;69763;50.182;9.144;2023-10-08T13:22:56;12.38;;;3.72;;
80421;SDS011;69763;50.182;9.144;2023-10-08T13:25:22;8.63;;;3.60;;
80421;SDS011;69763;50.182;9.144;2023-10-08T13:27:47;10.10;;;3.30;;
80421;SDS011;69763;50.182;9.144;2023-10-08T13:30:13;7.47;;;3.40;;
80421;SDS011;69763;50.182;9.144;2023-10-08T13:32:38;6.63;;;3.08;;
80421;SDS011;69763;50.182;9.144;2023-10-08T13:35:05;10.35;;;3.40;;
80421;SDS011;69763;50.182;9.144;2023-10-08T13:37:31;7.60;;;2.85;;
80421;SDS011;69763;50.182;9.144;2023-10-08T13:39:57;6.13;;;2.97;;
80421;SDS011;69763;50.182;9.144;2023-10-08T13:42:22;9.50;;;2.80;;
80421;SDS011;69763;50.182;9.144;2023-10-08T13:44:48;9.82;;;3.25;;
80421;SDS011;69763;50.182;9.144;2023-10-08T13:47:13;10.10;;;2.72;;
80421;SDS011;69763;50.182;9.144;2023-10-08T13:49:38;10.05;;;2.75;;
80421;SDS011;69763;50.182;9.144;2023-10-08T13:52:05;8.38;;;2.35;;
80421;SDS011;69763;50.182;9.144;2023-10-08T13:54:30;7.18;;;2.72;;
80421;SDS011;69763;50.182;9.144;2023-10-08T13:56:56;4.72;;;1.92;;
80421;SDS011;69763;50.182;9.144;2023-10-08T13:59:21;8.32;;;2.53;;
80421;SDS011;69763;50.182;9.144;2023-10-08T14:01:47;7.05;;;2.47;;
80421;SDS011;69763;50.182;9.144;2023-10-08T14:04:12;4.97;;;2.60;;
80421;SDS011;69763;50.182;9.144;2023-10-08T14:06:38;10.88;;;2.63;;
80421;SDS011;69763;50.182;9.144;2023-10-08T14:09:05;7.95;;;2.55;;
80421;SDS011;69763;50.182;9.144;2023-10-08T14:11:31;6.00;;;2.60;;
80421;SDS011;69763;50.182;9.144;2023-10-08T14:13:56;6.25;;;2.08;;
80421;SDS011;69763;50.182;9.144;2023-10-08T14:16:22;6.55;;;2.20;;
80421;SDS011;69763;50.182;9.144;2023-10-08T14:18:47;4.68;;;2.22;;
80421;SDS011;69763;50.182;9.144;2023-10-08T14:21:13;8.00;;;2.33;;
80421;SDS011;69763;50.182;9.144;2023-10-08T14:23:38;6.65;;;2.47;;
80421;SDS011;69763;50.182;9.144;2023-10-08T14:26:06;4.15;;;2.60;;
80421;SDS011;69763;50.182;9.144;2023-10-08T14:28:31;8.55;;;2.33;;
80421;SDS011;69763;50.182;9.144;2023-10-08T14:30:56;6.85;;;2.13;;
80421;SDS011;69763;50.182;9.144;2023-10-08T14:33:22;8.55;;;2.30;;
80421;SDS011;69763;50.182;9.144;2023-10-08T14:35:47;3.88;;;2.15;;
80421;SDS011;69763;50.182;9.144;2023-10-08T14:38:13;9.73;;;2.42;;
80421;SDS011;69763;50.182;9.144;2023-10-08T14:40:38;6.93;;;2.20;;
80421;SDS011;69763;50.182;9.144;2023-10-08T14:43:05;4.20;;;1.95;;
80421;SDS011;69763;50.182;9.144;2023-10-08T14:45:30;6.75;;;2.13;;
80421;SDS011;69763;50.182;9.144;2023-10-08T14:47:57;5.53;;;2.10;;
80421;SDS011;69763;50.182;9.144;2023-10-08T14:50:23;8.38;;;2.50;;